Time;durP1;ratioP1;P1;durP2;ratioP2;P2;SDS_P1;SDS_P2;PMS_P1;PMS_P2;Temp;Humidity;BMP_temperature;BMP_pressure;BME280_temperature;BME280_humidity;BME280_pressure;Samples;Min_cycle;Max_cycle;Signal;HPM_P1;HPM_P2
2023/03/14 00:01:50;;;;;;;6.00;2.10;;;13.30;96.40;;;;;;5115986;28;20458;-59
2023/03/14 00:04:17;;;;;;;12.53;2.23;;;13.40;96.50;;;;;;5116088;28;20452;-59
2023/03/14 00:06:44;;;;;;;8.47;2.43;;;13.40;95.90;;;;;;5115965;28;20473;-59
2023/03/14 00:09:10;;;;;;;7.50;1.40;;;13.40;96.00;;;;;;5115547;28;20872;-59
2023/03/14 00:11:37;;;;;;;9.63;2.10;;;13.40;96.00;;;;;;5115873;28;20438;-59
2023/03/14 00:14:04;;;;;;;4.33;1.30;;;13.30;95.90;;;;;;5115619;28;20493;-59
2023/03/14 00:16:32;;;;;;;6.47;2.40;;;13.30;96.10;;;;;;5115764;28;20439;-59
2023/03/14 00:19:00;;;;;;;10.87;2.53;;;13.30;96.00;;;;;;5115430;28;20500;-57
2023/03/14 00:21:26;;;;;;;11.60;2.17;;;13.20;97.50;;;;;;5115675;28;20479;-58
2023/03/14 00:23:53;;;;;;;4.50;2.03;;;13.20;98.60;;;;;;5115727;28;20803;-57
2023/03/14 00:26:22;;;;;;;9.97;1.80;;;13.00;99.20;;;;;;5115624;28;20458;-57
2023/03/14 00:28:52;;;;;;;6.23;1.40;;;12.80;99.90;;;;;;5115186;28;20936;-58
2023/03/14 00:31:19;;;;;;;2.40;1.00;;;12.50;99.90;;;;;;5115512;28;20443;-58
2023/03/14 00:33:47;;;;;;;2.90;1.37;;;12.20;99.90;;;;;;5115267;28;20487;-57
2023/03/14 00:36:16;;;;;;;4.90;1.70;;;12.00;99.90;;;;;;5115063;28;20975;-57
2023/03/14 00:38:44;;;;;;;3.57;1.00;;;11.90;99.90;;;;;;5114876;28;20838;-57
2023/03/14 00:41:13;;;;;;;6.87;0.90;;;11.70;99.90;;;;;;5115014;28;20443;-58
2023/03/14 00:43:40;;;;;;;3.03;0.93;;;11.50;99.90;;;;;;5115192;28;20474;-58
2023/03/14 00:46:07;;;;;;;4.53;0.97;;;11.30;99.90;;;;;;5114963;28;21005;-57
2023/03/14 00:48:35;;;;;;;1.83;0.70;;;11.30;99.90;;;;;;5115169;28;20454;-57
2023/03/14 00:51:04;;;;;;;4.87;2.10;;;11.20;99.90;;;;;;5115143;28;20447;-57
2023/03/14 00:53:31;;;;;;;2.00;0.80;;;11.20;99.90;;;;;;5114933;28;20528;-58
2023/03/14 00:55:58;;;;;;;3.83;1.37;;;11.20;99.90;;;;;;5115000;28;20443;-58
2023/03/14 00:58:24;;;;;;;2.53;1.00;;;11.20;99.90;;;;;;5114936;28;20442;-58
2023/03/14 01:00:51;;;;;;;8.07;1.10;;;11.30;99.90;;;;;;5114953;28;20447;-58
2023/03/14 01:03:18;;;;;;;3.00;1.17;;;11.30;99.90;;;;;;5114749;28;20462;-58
2023/03/14 01:05:44;;;;;;;3.93;1.07;;;11.30;99.90;;;;;;5114828;28;20790;-58
2023/03/14 01:08:12;;;;;;;1.40;0.90;;;11.40;99.90;;;;;;5114538;28;20447;-58
2023/03/14 01:10:40;;;;;;;3.67;1.27;;;11.40;99.90;;;;;;5114686;28;20457;-57
2023/03/14 01:13:06;;;;;;;6.00;0.97;;;11.50;99.90;;;;;;5114533;28;20471;-57
2023/03/14 01:15:33;;;;;;;4.87;1.20;;;11.50;99.90;;;;;;5114566;28;20490;-57
2023/03/14 01:18:00;;;;;;;5.03;1.30;;;11.50;99.90;;;;;;5114250;28;20967;-57
2023/03/14 01:20:27;;;;;;;3.43;1.50;;;11.50;99.90;;;;;;5114546;28;20443;-57
2023/03/14 01:22:53;;;;;;;5.37;1.37;;;11.60;99.90;;;;;;5114409;28;20496;-58
2023/03/14 01:25:22;;;;;;;4.13;1.20;;;11.60;99.90;;;;;;5114460;28;20451;-58
2023/03/14 01:27:48;;;;;;;5.80;2.10;;;11.60;99.90;;;;;;5114067;28;20867;-58
2023/03/14 01:30:15;;;;;;;4.83;1.50;;;11.60;99.90;;;;;;5114377;28;20508;-58
2023/03/14 01:32:42;;;;;;;3.40;1.20;;;11.70;99.90;;;;;;5114211;28;20466;-58
2023/03/14 01:35:09;;;;;;;5.60;1.73;;;11.70;99.90;;;;;;5113858;28;20482;-58
2023/03/14 01:37:36;;;;;;;5.03;1.50;;;11.70;99.90;;;;;;5114242;28;20447;-58
2023/03/14 01:40:05;;;;;;;7.63;1.70;;;11.70;99.90;;;;;;5114686;28;20434;-58
2023/03/14 01:42:33;;;;;;;2.83;0.77;;;11.80;99.90;;;;;;5115483;28;20879;-57
2023/03/14 01:45:02;;;;;;;7.47;1.60;;;11.80;99.90;;;;;;5115526;28;20500;-58
2023/03/14 01:47:28;;;;;;;3.20;0.97;;;11.80;99.90;;;;;;5114784;28;20554;-58
2023/03/14 01:50:00;;;;;;;4.73;1.13;;;11.80;99.90;;;;;;5114270;28;20446;-58
2023/03/14 01:52:32;;;;;;;6.47;1.83;;;11.80;99.90;;;;;;5114122;28;20478;-57
2023/03/14 01:55:04;;;;;;;6.50;2.00;;;11.80;99.90;;;;;;5114037;28;20502;-58
2023/03/14 01:57:37;;;;;;;3.90;1.27;;;11.70;99.90;;;;;;5114098;28;20497;-57
2023/03/14 02:00:11;;;;;;;8.57;1.67;;;11.70;99.90;;;;;;5114677;28;20480;-58
2023/03/14 02:02:38;;;;;;;5.90;1.30;;;11.70;99.90;;;;;;5114021;28;20499;-58
2023/03/14 02:05:06;;;;;;;6.00;1.20;;;11.70;99.90;;;;;;5113939;28;20443;-57
2023/03/14 02:07:37;;;;;;;5.43;1.17;;;11.80;99.90;;;;;;5113974;28;20450;-57
2023/03/14 02:10:06;;;;;;;4.23;1.27;;;11.80;99.90;;;;;;5113574;28;20806;-58
2023/03/14 02:12:34;;;;;;;4.30;1.23;;;11.80;99.90;;;;;;5113533;28;20983;-57
2023/03/14 02:15:01;;;;;;;4.47;1.40;;;11.80;99.90;;;;;;5113900;28;20483;-58
2023/03/14 02:17:28;;;;;;;9.97;1.73;;;11.80;99.90;;;;;;5113869;28;20501;-58
2023/03/14 02:20:07;;;;;;;4.03;0.80;;;11.80;99.90;;;;;;5113642;28;20446;-57
2023/03/14 02:22:35;;;;;;;3.43;1.60;;;11.80;99.90;;;;;;5118072;28;20501;-58
2023/03/14 02:25:08;;;;;;;7.27;0.90;;;11.80;99.90;;;;;;5118176;28;20434;-58
2023/03/14 02:27:37;;;;;;;3.87;0.90;;;11.80;99.90;;;;;;5118081;28;20434;-58
2023/03/14 02:30:08;;;;;;;1.70;0.73;;;11.90;99.90;;;;;;5117934;28;20442;-58
2023/03/14 02:32:36;;;;;;;6.30;1.70;;;11.90;99.90;;;;;;5117809;28;20597;-57
2023/03/14 02:35:07;;;;;;;7.83;2.33;;;11.90;99.90;;;;;;5117691;28;20512;-57
2023/03/14 02:37:38;;;;;;;4.57;1.00;;;11.90;99.90;;;;;;5117758;28;20439;-58
2023/03/14 02:40:06;;;;;;;2.93;0.97;;;11.90;99.90;;;;;;5117514;28;20439;-58
2023/03/14 02:42:33;;;;;;;6.37;1.70;;;11.90;99.90;;;;;;5117688;28;20519;-58
2023/03/14 02:45:36;;;;;;;9.30;3.03;;;11.90;99.90;;;;;;5117631;28;20442;-58
2023/03/14 02:48:07;;;;;;;4.40;1.37;;;11.90;99.90;;;;;;5117541;28;20450;-58
2023/03/14 02:50:35;;;;;;;6.00;2.07;;;11.90;99.90;;;;;;5117650;28;20439;-58
2023/03/14 02:53:02;;;;;;;4.23;1.00;;;11.90;99.90;;;;;;5117584;28;20462;-58
2023/03/14 02:55:29;;;;;;;3.70;1.17;;;11.90;99.90;;;;;;5117306;28;20478;-58
2023/03/14 02:57:56;;;;;;;7.27;1.53;;;11.90;99.90;;;;;;5117328;28;20443;-58
2023/03/14 03:00:24;;;;;;;4.73;1.63;;;11.90;99.90;;;;;;5117240;28;20443;-58
2023/03/14 03:02:51;;;;;;;7.33;1.83;;;11.90;99.90;;;;;;5117175;28;20474;-57
2023/03/14 03:05:18;;;;;;;5.50;1.57;;;11.90;99.90;;;;;;5116825;28;20952;-58
2023/03/14 03:07:45;;;;;;;3.17;1.30;;;11.90;99.90;;;;;;5116819;28;20469;-58
2023/03/14 03:10:12;;;;;;;10.20;2.50;;;11.90;99.90;;;;;;5116725;28;20947;-57
2023/03/14 03:12:39;;;;;;;5.23;1.90;;;11.90;99.90;;;;;;5116955;28;20466;-57
2023/03/14 03:15:06;;;;;;;9.20;2.13;;;11.80;99.90;;;;;;5116888;28;20479;-57
2023/03/14 03:17:34;;;;;;;4.03;1.50;;;11.80;99.90;;;;;;5117031;28;20458;-57
2023/03/14 03:20:03;;;;;;;4.17;1.27;;;11.80;99.90;;;;;;5116900;28;20499;-57
2023/03/14 03:22:30;;;;;;;3.30;1.70;;;11.70;99.90;;;;;;5116705;28;20545;-57
2023/03/14 03:24:57;;;;;;;6.00;1.63;;;11.60;99.90;;;;;;5116861;28;20464;-57
2023/03/14 03:27:23;;;;;;;7.13;1.80;;;11.50;99.90;;;;;;5116797;28;20442;-57
2023/03/14 03:29:50;;;;;;;9.30;1.80;;;11.40;99.90;;;;;;5116440;28;20944;-57
2023/03/14 03:32:17;;;;;;;9.47;1.80;;;11.40;99.90;;;;;;5116512;28;20834;-57
2023/03/14 03:34:45;;;;;;;9.73;2.17;;;11.40;99.90;;;;;;5116522;28;20478;-57
2023/03/14 03:37:11;;;;;;;11.90;2.90;;;11.40;99.90;;;;;;5116215;28;20948;-57
2023/03/14 03:39:38;;;;;;;7.00;2.03;;;11.40;99.90;;;;;;5116159;28;20644;-57
2023/03/14 03:42:05;;;;;;;9.37;2.43;;;11.50;99.90;;;;;;5116415;28;20532;-57
2023/03/14 03:44:31;;;;;;;7.00;2.60;;;11.50;99.90;;;;;;5116112;28;20439;-57
2023/03/14 03:46:58;;;;;;;7.80;2.00;;;11.50;99.90;;;;;;5116016;28;20855;-57
2023/03/14 03:49:28;;;;;;;23.70;2.57;;;11.60;99.90;;;;;;5115931;28;20959;-57
2023/03/14 03:51:57;;;;;;;9.30;2.13;;;11.60;99.90;;;;;;5116254;28;20439;-58
2023/03/14 03:54:23;;;;;;;8.00;1.40;;;11.60;99.90;;;;;;5116168;28;20451;-58
2023/03/14 03:56:50;;;;;;;6.77;1.80;;;11.70;99.90;;;;;;5116243;28;20443;-58
2023/03/14 03:59:17;;;;;;;5.13;1.47;;;11.70;99.90;;;;;;5116092;28;20447;-58
2023/03/14 04:01:43;;;;;;;6.00;1.60;;;11.70;99.90;;;;;;5116003;28;20453;-58
2023/03/14 04:04:10;;;;;;;2.57;1.40;;;11.80;99.90;;;;;;5116076;28;20492;-58
2023/03/14 04:06:38;;;;;;;6.30;1.87;;;11.80;99.90;;;;;;5115980;28;20439;-57
2023/03/14 04:09:06;;;;;;;5.10;1.50;;;11.70;99.90;;;;;;5115910;28;20847;-58
2023/03/14 04:11:32;;;;;;;7.00;1.53;;;11.80;99.90;;;;;;5115957;28;20499;-58
2023/03/14 04:13:59;;;;;;;6.23;1.47;;;11.70;99.90;;;;;;5115711;28;20471;-58
2023/03/14 04:16:26;;;;;;;2.00;1.10;;;11.60;99.90;;;;;;5115753;28;20486;-58
2023/03/14 04:18:53;;;;;;;4.00;1.50;;;11.60;99.90;;;;;;5115774;28;20447;-58
2023/03/14 04:21:20;;;;;;;2.83;1.27;;;11.60;99.90;;;;;;5115772;28;20451;-58
2023/03/14 04:23:47;;;;;;;1.63;0.87;;;11.60;99.90;;;;;;5115599;28;20470;-58
2023/03/14 04:26:15;;;;;;;3.30;0.83;;;11.50;99.90;;;;;;5115613;28;20443;-58
2023/03/14 04:28:42;;;;;;;1.90;0.87;;;11.50;99.90;;;;;;5115301;28;20932;-58
2023/03/14 04:31:09;;;;;;;5.60;1.00;;;11.60;99.90;;;;;;5115576;28;20449;-58
2023/03/14 04:33:37;;;;;;;2.30;0.60;;;11.60;99.90;;;;;;5115358;28;20520;-56
2023/03/14 04:36:05;;;;;;;1.57;0.80;;;11.50;99.90;;;;;;5115489;28;20478;-58
2023/03/14 04:38:32;;;;;;;2.70;0.60;;;11.60;99.90;;;;;;5115171;28;20520;-57
2023/03/14 04:41:00;;;;;;;2.93;1.00;;;11.60;99.90;;;;;;5116156;28;20451;-57
2023/03/14 04:43:28;;;;;;;2.60;1.17;;;11.50;99.90;;;;;;5116192;28;20465;-57
2023/03/14 04:45:55;;;;;;;0.50;0.47;;;11.50;99.90;;;;;;5116133;28;20434;-57
2023/03/14 04:48:22;;;;;;;2.10;0.50;;;11.50;99.90;;;;;;5115608;28;20446;-57
2023/03/14 04:50:49;;;;;;;0.73;0.50;;;11.50;99.90;;;;;;5115269;28;20915;-58
2023/03/14 04:53:17;;;;;;;1.47;0.60;;;11.50;99.90;;;;;;5114844;28;20976;-58
2023/03/14 04:55:49;;;;;;;0.70;0.50;;;11.60;99.90;;;;;;5115065;28;20482;-58
2023/03/14 04:58:16;;;;;;;0.80;0.50;;;11.50;99.90;;;;;;5115072;28;20462;-58
2023/03/14 05:00:44;;;;;;;0.40;0.30;;;11.50;99.90;;;;;;5115079;28;20451;-58
2023/03/14 05:03:10;;;;;;;2.10;0.40;;;11.50;99.90;;;;;;5115058;28;20459;-58
2023/03/14 05:05:37;;;;;;;0.70;0.40;;;11.50;99.90;;;;;;5114901;28;20447;-58
2023/03/14 05:08:04;;;;;;;0.50;0.40;;;11.50;99.90;;;;;;5114943;28;20450;-58
2023/03/14 05:10:31;;;;;;;1.03;0.40;;;11.40;99.90;;;;;;5114839;28;20454;-58
2023/03/14 05:12:57;;;;;;;2.17;0.40;;;11.40;99.90;;;;;;5114761;28;20466;-58
2023/03/14 05:15:24;;;;;;;1.40;0.53;;;11.40;99.90;;;;;;5114372;28;21022;-57
2023/03/14 05:17:54;;;;;;;0.40;0.30;;;11.40;99.90;;;;;;5114603;28;20442;-58
2023/03/14 05:20:20;;;;;;;2.87;0.40;;;11.50;99.90;;;;;;5114703;28;20443;-58
2023/03/14 05:22:48;;;;;;;4.00;0.87;;;11.50;99.90;;;;;;5115404;28;20471;-58
2023/03/14 05:25:15;;;;;;;2.93;0.40;;;11.50;99.90;;;;;;5114409;28;20447;-58
2023/03/14 05:27:41;;;;;;;0.73;0.47;;;11.50;99.90;;;;;;5114492;28;20446;-58
2023/03/14 05:30:09;;;;;;;1.90;0.40;;;11.50;99.90;;;;;;5114554;28;20451;-57
2023/03/14 05:32:36;;;;;;;1.03;0.40;;;11.50;99.90;;;;;;5114327;28;20467;-57
2023/03/14 05:35:05;;;;;;;0.93;0.50;;;11.50;99.90;;;;;;5114251;28;20501;-58
2023/03/14 05:37:31;;;;;;;0.40;0.30;;;11.50;99.90;;;;;;5114234;28;20802;-58
2023/03/14 05:39:58;;;;;;;1.27;0.40;;;11.40;99.90;;;;;;5114405;28;20434;-58
2023/03/14 05:42:25;;;;;;;1.50;0.30;;;11.40;99.90;;;;;;5114249;28;20474;-58
2023/03/14 05:44:51;;;;;;;1.83;0.63;;;11.40;99.90;;;;;;5114129;28;20850;-58
2023/03/14 05:47:18;;;;;;;0.60;0.60;;;11.40;99.90;;;;;;5114140;28;20446;-58
2023/03/14 05:49:45;;;;;;;0.73;0.30;;;11.30;99.90;;;;;;5114139;28;20450;-58
2023/03/14 05:52:13;;;;;;;0.67;0.30;;;11.30;99.90;;;;;;5114127;28;20463;-58
2023/03/14 05:54:39;;;;;;;0.80;0.30;;;11.20;99.90;;;;;;5113030;28;20454;-58
2023/03/14 05:57:06;;;;;;;0.90;0.20;;;11.20;99.90;;;;;;5113901;28;20475;-58
2023/03/14 05:59:33;;;;;;;0.50;0.30;;;11.20;99.90;;;;;;5113891;28;20439;-58
2023/03/14 06:02:00;;;;;;;0.73;0.30;;;11.30;99.90;;;;;;5113932;28;20454;-58
2023/03/14 06:04:27;;;;;;;1.70;0.30;;;11.30;99.90;;;;;;5113943;28;20442;-58
2023/03/14 06:06:53;;;;;;;1.07;0.30;;;11.30;99.90;;;;;;5113873;28;20450;-58
2023/03/14 06:09:23;;;;;;;1.00;0.30;;;11.30;99.90;;;;;;5113845;28;20499;-58
2023/03/14 06:11:49;;;;;;;0.67;0.40;;;11.40;99.90;;;;;;5113765;28;20486;-58
2023/03/14 06:14:16;;;;;;;0.50;0.40;;;11.40;99.90;;;;;;5113510;28;21085;-58
2023/03/14 06:16:43;;;;;;;2.77;0.30;;;11.40;99.90;;;;;;5113783;28;20482;-58
2023/03/14 06:19:10;;;;;;;1.43;0.40;;;11.30;99.90;;;;;;5113810;28;20511;-58
2023/03/14 06:21:37;;;;;;;3.53;0.60;;;11.30;99.90;;;;;;5113812;28;20458;-58
2023/03/14 06:24:04;;;;;;;4.00;0.33;;;11.30;99.90;;;;;;5113673;28;20471;-58
2023/03/14 06:26:32;;;;;;;4.73;0.60;;;11.40;99.90;;;;;;5113439;28;20947;-58
2023/03/14 06:29:03;;;;;;;2.53;0.40;;;11.40;99.90;;;;;;5113787;28;20813;-58
2023/03/14 06:31:30;;;;;;;0.63;0.60;;;11.40;99.90;;;;;;5113832;28;20440;-58
2023/03/14 06:33:56;;;;;;;4.20;0.50;;;11.40;99.90;;;;;;5113585;28;20474;-58
2023/03/14 06:36:23;;;;;;;5.27;0.93;;;11.50;99.90;;;;;;5113500;28;20470;-58
2023/03/14 06:38:50;;;;;;;1.57;0.40;;;11.50;99.90;;;;;;5113134;28;20955;-58
2023/03/14 06:41:17;;;;;;;0.40;0.20;;;11.60;99.90;;;;;;5113584;28;20454;-58
2023/03/14 06:43:45;;;;;;;1.10;0.30;;;11.60;99.90;;;;;;5113465;28;20470;-58
2023/03/14 06:46:12;;;;;;;0.60;0.30;;;11.60;99.90;;;;;;5113568;28;20447;-58
2023/03/14 06:48:38;;;;;;;0.40;0.20;;;11.60;99.90;;;;;;5113570;28;20500;-58
2023/03/14 06:51:06;;;;;;;0.53;0.33;;;11.60;99.90;;;;;;5113493;28;20447;-58
2023/03/14 06:53:33;;;;;;;0.50;0.30;;;11.60;99.90;;;;;;5113195;28;20515;-58
2023/03/14 06:55:59;;;;;;;0.80;0.80;;;11.60;99.90;;;;;;5113417;28;20486;-58
2023/03/14 06:58:26;;;;;;;0.50;0.30;;;11.60;99.90;;;;;;5113083;28;20844;-58
2023/03/14 07:00:56;;;;;;;0.40;0.30;;;11.60;99.90;;;;;;5113079;28;20963;-58
2023/03/14 07:03:23;;;;;;;0.93;0.20;;;11.60;99.90;;;;;;5113564;28;20474;-58
2023/03/14 07:05:50;;;;;;;2.13;0.40;;;11.60;99.90;;;;;;5113455;28;20438;-58
2023/03/14 07:08:17;;;;;;;1.33;0.30;;;11.60;99.90;;;;;;5117196;28;20447;-58
2023/03/14 07:10:44;;;;;;;1.33;0.30;;;11.60;99.90;;;;;;5117185;28;20458;-58
2023/03/14 07:13:10;;;;;;;0.40;0.30;;;11.60;99.90;;;;;;5116957;28;20474;-58
2023/03/14 07:15:37;;;;;;;0.40;0.30;;;11.60;99.90;;;;;;5117274;28;20552;-58
2023/03/14 07:18:05;;;;;;;0.40;0.30;;;11.70;99.90;;;;;;5116980;28;20817;-58
2023/03/14 07:20:32;;;;;;;3.70;0.70;;;11.70;99.90;;;;;;5116703;28;20451;-58
2023/03/14 07:22:59;;;;;;;0.40;0.30;;;11.80;99.90;;;;;;5116939;28;20505;-58
2023/03/14 07:25:26;;;;;;;0.40;0.40;;;11.80;99.90;;;;;;5117005;28;20446;-58
2023/03/14 07:27:53;;;;;;;1.33;0.30;;;11.80;99.90;;;;;;5116822;28;20442;-58
2023/03/14 07:30:20;;;;;;;1.27;0.30;;;11.70;99.90;;;;;;5116948;28;20443;-58
2023/03/14 07:32:46;;;;;;;0.90;0.50;;;11.70;99.90;;;;;;5116849;28;20465;-58
2023/03/14 07:35:14;;;;;;;0.40;0.40;;;11.60;99.90;;;;;;5116737;28;20472;-57
2023/03/14 07:37:41;;;;;;;0.80;0.50;;;11.60;99.90;;;;;;5116920;28;20449;-58
2023/03/14 07:40:10;;;;;;;0.87;0.60;;;11.60;99.90;;;;;;5117469;28;20442;-58
2023/03/14 07:42:37;;;;;;;0.50;0.50;;;11.60;99.90;;;;;;5117544;28;20812;-58
2023/03/14 07:45:04;;;;;;;1.33;0.50;;;11.70;99.90;;;;;;5117292;28;20462;-58
2023/03/14 07:47:31;;;;;;;0.70;0.50;;;11.70;99.90;;;;;;5117230;28;20940;-57
2023/03/14 07:49:57;;;;;;;0.60;0.60;;;11.80;99.90;;;;;;5117816;28;20944;-58
2023/03/14 07:52:25;;;;;;;1.90;0.73;;;11.80;99.90;;;;;;5117406;28;20826;-58
2023/03/14 07:54:52;;;;;;;0.50;0.50;;;12.00;99.90;;;;;;5116993;28;20443;-58
2023/03/14 07:57:19;;;;;;;0.97;0.60;;;12.10;99.90;;;;;;5116759;28;20474;-58
2023/03/14 07:59:45;;;;;;;2.00;0.60;;;12.20;99.90;;;;;;5117018;28;20443;-58
2023/03/14 08:02:13;;;;;;;1.33;0.63;;;12.20;99.90;;;;;;5116421;28;20508;-58
2023/03/14 08:04:40;;;;;;;1.67;0.47;;;12.20;99.90;;;;;;5116192;28;20988;-58
2023/03/14 08:07:07;;;;;;;0.50;0.40;;;12.30;99.90;;;;;;5116738;28;20442;-58
2023/03/14 08:09:35;;;;;;;1.47;0.57;;;12.30;99.90;;;;;;5117373;28;20524;-58
2023/03/14 08:12:02;;;;;;;0.60;0.60;;;12.40;99.90;;;;;;5115910;28;20838;-58
2023/03/14 08:14:30;;;;;;;0.50;0.40;;;12.40;99.90;;;;;;5116316;28;20443;-58
2023/03/14 08:16:57;;;;;;;0.57;0.57;;;12.50;99.90;;;;;;5116376;28;20475;-58
2023/03/14 08:19:24;;;;;;;0.90;0.60;;;12.50;99.90;;;;;;5114943;28;20442;-58
2023/03/14 08:21:51;;;;;;;0.60;0.43;;;12.60;99.90;;;;;;5116074;28;20445;-58
2023/03/14 08:24:18;;;;;;;0.87;0.60;;;12.60;99.90;;;;;;5115432;28;20454;-58
2023/03/14 08:26:46;;;;;;;1.80;0.63;;;12.60;99.90;;;;;;5115854;28;20466;-58
2023/03/14 08:29:12;;;;;;;1.33;0.70;;;12.50;99.90;;;;;;5115753;28;20443;-58
2023/03/14 08:31:39;;;;;;;1.53;0.60;;;12.60;99.90;;;;;;5115681;28;20503;-58
2023/03/14 08:34:06;;;;;;;1.27;0.80;;;12.40;99.90;;;;;;5115360;28;20947;-58
2023/03/14 08:36:33;;;;;;;0.90;0.77;;;12.40;99.90;;;;;;5115158;28;21068;-58
2023/03/14 08:39:00;;;;;;;2.30;1.27;;;12.40;99.90;;;;;;5114990;28;20459;-57
2023/03/14 08:41:27;;;;;;;4.20;0.83;;;12.40;99.90;;;;;;5115494;28;20450;-57
2023/03/14 08:43:54;;;;;;;1.43;0.70;;;12.20;99.90;;;;;;5115273;28;20519;-57
2023/03/14 08:46:21;;;;;;;2.37;1.23;;;12.10;99.90;;;;;;5115309;28;20451;-56
2023/03/14 08:48:48;;;;;;;1.70;1.20;;;11.90;99.90;;;;;;5115321;28;20450;-57
2023/03/14 08:51:15;;;;;;;2.50;0.70;;;11.80;99.90;;;;;;5115450;28;20453;-56
2023/03/14 08:53:42;;;;;;;2.10;1.20;;;11.80;99.90;;;;;;5115056;28;20463;-57
2023/03/14 08:56:10;;;;;;;2.50;0.80;;;11.80;99.90;;;;;;5114748;28;21010;-57
2023/03/14 08:58:37;;;;;;;1.00;0.90;;;11.80;99.90;;;;;;5114964;28;20557;-57
2023/03/14 09:01:06;;;;;;;1.23;0.83;;;11.80;99.90;;;;;;5114775;28;21009;-57
2023/03/14 09:03:33;;;;;;;1.00;0.70;;;11.70;99.90;;;;;;5114936;28;20471;-56
2023/03/14 09:06:04;;;;;;;1.67;0.60;;;11.80;99.90;;;;;;5114817;28;20451;-57
2023/03/14 09:08:31;;;;;;;0.50;0.50;;;11.60;99.90;;;;;;5114542;28;20927;-57
2023/03/14 09:10:58;;;;;;;0.70;0.50;;;11.20;99.90;;;;;;5114672;28;20439;-57
2023/03/14 09:13:25;;;;;;;0.50;0.50;;;10.90;99.90;;;;;;5114659;28;20470;-57
2023/03/14 09:15:52;;;;;;;0.40;0.40;;;10.70;99.90;;;;;;5114701;28;20442;-57
2023/03/14 09:18:20;;;;;;;2.10;0.60;;;10.50;99.90;;;;;;5114758;28;20451;-57
2023/03/14 09:20:47;;;;;;;0.57;0.40;;;10.20;99.90;;;;;;5114386;28;20960;-57
2023/03/14 09:23:14;;;;;;;0.60;0.60;;;10.00;99.90;;;;;;5114402;28;20843;-57
2023/03/14 09:25:40;;;;;;;3.13;0.77;;;9.80;99.90;;;;;;5114422;28;20443;-56
2023/03/14 09:28:07;;;;;;;1.23;0.80;;;9.80;99.90;;;;;;5114392;28;20443;-56
2023/03/14 09:30:34;;;;;;;0.60;0.60;;;9.70;99.90;;;;;;5114167;28;20815;-56
2023/03/14 09:33:01;;;;;;;1.07;0.80;;;9.70;99.90;;;;;;5114450;28;20831;-56
2023/03/14 09:35:29;;;;;;;1.00;0.77;;;9.70;99.90;;;;;;5114343;28;20442;-57
2023/03/14 09:37:56;;;;;;;1.00;1.00;;;9.80;99.90;;;;;;5114038;28;20482;-57
2023/03/14 09:40:23;;;;;;;1.43;1.10;;;9.80;99.90;;;;;;5113969;28;20447;-57
2023/03/14 09:42:52;;;;;;;2.10;1.30;;;9.90;99.90;;;;;;5114238;28;20478;-57
2023/03/14 09:45:26;;;;;;;1.77;1.67;;;10.00;99.90;;;;;;5114104;28;20443;-57
2023/03/14 09:47:54;;;;;;;1.50;1.40;;;10.00;99.90;;;;;;5114232;28;20457;-57
2023/03/14 09:50:21;;;;;;;1.50;1.40;;;10.00;99.90;;;;;;5114094;28;20519;-57
2023/03/14 09:52:52;;;;;;;1.53;1.43;;;10.00;99.90;;;;;;5114006;28;20474;-57
2023/03/14 09:55:22;;;;;;;1.57;1.47;;;9.90;99.90;;;;;;5114071;28;20483;-57
2023/03/14 09:57:50;;;;;;;1.80;1.70;;;9.80;99.90;;;;;;5114553;28;20793;-57
2023/03/14 10:00:20;;;;;;;2.50;2.10;;;9.70;99.90;;;;;;5114017;28;20455;-57
2023/03/14 10:02:53;;;;;;;1.80;1.70;;;9.60;99.90;;;;;;5113947;28;20502;-56
2023/03/14 10:05:22;;;;;;;3.70;2.60;;;9.60;99.90;;;;;;5114006;28;20426;-57
2023/03/14 10:07:50;;;;;;;2.50;2.40;;;9.50;99.90;;;;;;5114012;28;20446;-57
2023/03/14 10:10:20;;;;;;;2.57;2.03;;;9.40;99.90;;;;;;5113842;28;20450;-57
2023/03/14 10:12:49;;;;;;;2.07;1.97;;;9.40;99.90;;;;;;5113746;28;20469;-57
2023/03/14 10:15:30;;;;;;;2.57;2.00;;;9.30;99.90;;;;;;5113707;28;20458;-57
2023/03/14 10:17:59;;;;;;;1.80;1.70;;;9.20;99.90;;;;;;5113710;28;20463;-57
2023/03/14 10:20:35;;;;;;;2.60;1.80;;;9.10;99.90;;;;;;5113524;28;20451;-57
2023/03/14 10:23:05;;;;;;;2.40;1.97;;;9.10;99.90;;;;;;5113375;28;20867;-57
2023/03/14 10:25:34;;;;;;;1.80;1.70;;;9.10;99.90;;;;;;5113721;28;20435;-57
2023/03/14 10:28:01;;;;;;;2.83;1.40;;;9.20;99.90;;;;;;5113678;28;20439;-57
2023/03/14 10:30:43;;;;;;;1.60;1.30;;;9.30;99.90;;;;;;5113700;28;20447;-58
2023/03/14 10:33:13;;;;;;;4.10;1.70;;;9.40;99.90;;;;;;5113657;28;20466;-57
2023/03/14 10:35:40;;;;;;;1.63;1.10;;;9.50;99.90;;;;;;5113894;28;20454;-57
2023/03/14 10:38:13;;;;;;;1.47;1.30;;;9.60;99.90;;;;;;5115261;28;20505;-58
2023/03/14 10:40:48;;;;;;;1.50;0.90;;;9.60;99.90;;;;;;5114651;28;20431;-57
2023/03/14 10:43:18;;;;;;;1.80;1.10;;;9.70;99.90;;;;;;5118149;28;20553;-58
2023/03/14 10:45:52;;;;;;;2.97;0.80;;;9.80;99.90;;;;;;5118768;28;20427;-58
2023/03/14 10:48:22;;;;;;;1.10;1.00;;;9.80;99.90;;;;;;5117951;28;20459;-58
2023/03/14 10:50:50;;;;;;;1.20;0.90;;;9.70;99.90;;;;;;5118028;28;20558;-58
2023/03/14 10:53:19;;;;;;;2.10;1.03;;;9.70;99.90;;;;;;5117409;28;20892;-58
2023/03/14 10:55:46;;;;;;;1.80;1.70;;;9.80;99.90;;;;;;5117643;28;20446;-58
2023/03/14 10:58:24;;;;;;;2.10;1.90;;;9.80;99.90;;;;;;5117450;28;20482;-57
2023/03/14 11:01:01;;;;;;;6.70;1.50;;;10.00;99.90;;;;;;5117506;28;20435;-58
2023/03/14 11:03:31;;;;;;;2.33;2.13;;;10.10;99.90;;;;;;5117315;28;20470;-58
2023/03/14 11:06:00;;;;;;;2.60;2.40;;;10.10;99.90;;;;;;5117776;28;20446;-57
2023/03/14 11:08:34;;;;;;;4.60;3.77;;;10.10;99.90;;;;;;5117146;28;20447;-57
2023/03/14 11:11:14;;;;;;;4.50;1.67;;;10.00;99.90;;;;;;5117104;28;20434;-57
2023/03/14 11:13:49;;;;;;;2.03;1.00;;;9.90;99.90;;;;;;5117094;28;20836;-56
2023/03/14 11:16:23;;;;;;;2.80;2.50;;;9.90;99.90;;;;;;5117117;28;20434;-56
2023/03/14 11:19:00;;;;;;;4.60;3.70;;;9.80;99.90;;;;;;5116981;28;20926;-56
2023/03/14 11:21:31;;;;;;;6.40;5.50;;;9.70;99.90;;;;;;5116985;28;20435;-57
2023/03/14 11:24:19;;;;;;;9.00;7.43;;;9.60;99.90;;;;;;5116971;28;20467;-56
2023/03/14 11:26:53;;;;;;;9.70;8.70;;;9.60;99.90;;;;;;5117005;28;20771;-57
2023/03/14 11:29:28;;;;;;;4.77;3.33;;;9.70;99.90;;;;;;5116749;28;20435;-56
2023/03/14 11:31:58;;;;;;;5.20;4.27;;;9.80;99.90;;;;;;5116750;28;20430;-57
2023/03/14 11:34:29;;;;;;;3.87;3.43;;;9.80;99.90;;;;;;5116676;28;20450;-58
2023/03/14 11:37:01;;;;;;;8.47;6.70;;;9.80;99.90;;;;;;5116527;28;20463;-57
2023/03/14 11:39:38;;;;;;;4.83;4.37;;;9.90;99.90;;;;;;5116346;28;20521;-58
2023/03/14 11:42:05;;;;;;;4.40;4.10;;;10.10;99.90;;;;;;5116622;28;20492;-58
2023/03/14 11:44:37;;;;;;;5.63;4.80;;;10.30;99.90;;;;;;5116289;28;20967;-58
2023/03/14 11:47:07;;;;;;;4.03;2.40;;;10.50;99.90;;;;;;5116572;28;20423;-58
2023/03/14 11:49:39;;;;;;;5.60;2.83;;;10.70;99.90;;;;;;5116447;28;20776;-58
2023/03/14 11:52:13;;;;;;;6.43;5.33;;;10.70;99.90;;;;;;5116052;28;20881;-58
2023/03/14 11:54:47;;;;;;;1.67;1.37;;;10.80;99.90;;;;;;5115581;28;20434;-58
2023/03/14 11:57:16;;;;;;;3.93;1.67;;;10.60;99.90;;;;;;5116291;28;20501;-58
2023/03/14 11:59:52;;;;;;;3.50;2.53;;;10.60;99.90;;;;;;5115959;28;20447;-58
2023/03/14 12:02:25;;;;;;;2.70;2.10;;;10.60;99.90;;;;;;5116067;28;20527;-58
2023/03/14 12:05:18;;;;;;;2.90;1.67;;;10.80;99.90;;;;;;5116201;28;20431;-58
2023/03/14 12:08:04;;;;;;;5.00;3.43;;;10.90;99.30;;;;;;5116282;28;20431;-58
2023/03/14 12:10:38;;;;;;;2.63;2.33;;;11.00;99.00;;;;;;5116168;28;20522;-58
2023/03/14 12:13:08;;;;;;;1.77;0.90;;;10.80;98.60;;;;;;5116150;28;20469;-58
2023/03/14 12:15:39;;;;;;;1.60;0.77;;;10.60;98.80;;;;;;5116008;28;20451;-58
2023/03/14 12:18:20;;;;;;;2.47;1.00;;;10.50;98.10;;;;;;5117093;28;20470;-58
2023/03/14 12:20:54;;;;;;;6.20;1.00;;;10.40;98.30;;;;;;5115981;28;20427;-58
2023/03/14 12:23:21;;;;;;;4.03;2.10;;;10.30;98.80;;;;;;5115756;28;20490;-57
2023/03/14 12:26:06;;;;;;;6.97;4.83;;;10.20;98.30;;;;;;5115693;28;20952;-58
2023/03/14 12:28:33;;;;;;;3.00;1.93;;;10.20;98.60;;;;;;5115694;28;20439;-58
2023/03/14 12:31:37;;;;;;;3.67;1.90;;;10.30;97.80;;;;;;5115643;28;20474;-58
2023/03/14 12:34:05;;;;;;;2.50;1.20;;;10.50;98.30;;;;;;5115598;28;20477;-58
2023/03/14 12:36:57;;;;;;;3.30;0.93;;;11.00;98.70;;;;;;5115485;28;20450;-58
2023/03/14 12:39:36;;;;;;;3.60;0.90;;;12.00;96.00;;;;;;5115139;28;20454;-58
2023/03/14 12:42:05;;;;;;;4.90;1.17;;;12.50;92.80;;;;;;5115345;28;20465;-58
2023/03/14 12:44:44;;;;;;;2.63;0.60;;;12.60;93.10;;;;;;5115320;28;20964;-58
2023/03/14 12:47:44;;;;;;;1.87;1.00;;;12.40;92.50;;;;;;5114882;28;20459;-58
2023/03/14 12:50:24;;;;;;;1.77;0.80;;;12.30;93.40;;;;;;5114810;28;20432;-58
2023/03/14 12:53:24;;;;;;;3.73;1.13;;;12.40;92.40;;;;;;5115010;28;20461;-58
2023/03/14 12:55:57;;;;;;;5.00;1.40;;;12.80;91.20;;;;;;5115050;28;20488;-58
2023/03/14 12:58:31;;;;;;;4.53;1.47;;;13.40;87.30;;;;;;5114999;28;20467;-58